This is the latest recevied weather packets stored in our database for station/object KO4ZGL-13. If no packets are shown the sender has not sent any weather packets the latest 10 day(s).
| Time | Temp. | Humidity | Pressure | Rain* | Wind** | Luminosity | Snow |
|---|---|---|---|---|---|---|---|
| 1787601152 | 36.11° C | 54% | 1013.1 hPa | 0 mm | - | 502 W/m² | - |
| 1787600851 | 36.11° C | 54% | 1013.2 hPa | 0 mm | - | 519 W/m² | - |
| 1787600547 | 36.67° C | 61% | 1013.2 hPa | 0 mm | - | 555 W/m² | - |
| 1787600243 | 36.11° C | 54% | 1013.3 hPa | 0 mm | - | 603 W/m² | - |
| 1787599939 | 36.11° C | 59% | 1013.2 hPa | 0 mm | - | 590 W/m² | - |
| 1787599635 | 36.11° C | 61% | 1013 hPa | 0 mm | - | 606 W/m² | - |
| 1787599332 | 36.67° C | 58% | 1013.3 hPa | 0 mm | - | 177 W/m² | - |
| 1787599027 | 35.56° C | 59% | 1013.1 hPa | 0 mm | - | 594 W/m² | - |
| 1787598723 | 36.11° C | 55% | 1013.2 hPa | 0 mm | - | 628 W/m² | - |
| 1787598417 | 36.11° C | 61% | 1013.1 hPa | 0 mm | - | 619 W/m² | - |
| 1787598113 | 36.67° C | 57% | 1013.2 hPa | 0 mm | - | 638 W/m² | - |
| 1787597808 | 36.67° C | 56% | 1013.3 hPa | 0 mm | - | 639 W/m² | - |
| 1787597502 | 36.11° C | 58% | 1013.4 hPa | 0 mm | - | 650 W/m² | - |
| 1787597201 | 37.22° C | 58% | 1013.5 hPa | 0 mm | - | 641 W/m² | - |
| 1787596897 | 37.22° C | 58% | 1013.6 hPa | 0 mm | - | 630 W/m² | - |
| 1787596593 | 36.11° C | 59% | 1013.6 hPa | 0 mm | - | 632 W/m² | - |
| 1787596287 | 36.11° C | 60% | 1013.7 hPa | 0 mm | - | 634 W/m² | - |
| 1787595984 | 36.11° C | 56% | 1013.7 hPa | 0 mm | - | 634 W/m² | - |
| 1787595679 | 36.67° C | 60% | 1013.8 hPa | 0 mm | - | 629 W/m² | - |
| 1787595375 | 35.56° C | 59% | 1013.9 hPa | 0 mm | - | 661 W/m² | - |
| 1787595074 | 35.56° C | 65% | 1013.8 hPa | 0 mm | - | 652 W/m² | - |
| 1787594769 | 36.11° C | 63% | 1013.9 hPa | 0 mm | - | 146 W/m² | - |
| 1787594463 | 36.11° C | 61% | 1013.9 hPa | 0 mm | - | 648 W/m² | - |
| 1787594162 | 35.56° C | 64% | 1013.7 hPa | 0 mm | - | 662 W/m² | - |
| 1787593857 | 36.11° C | 62% | 1013.9 hPa | 0 mm | - | 299 W/m² | - |
* Rain latest hour (hover to see other rain measurements)
** Current wind speed in m/s (hover to see current wind gust speed)